createdAt,value
2023-01-08T00:02:14.254Z,100092.22
2023-01-08T00:04:40.805Z,100089.25
2023-01-08T00:07:07.245Z,100093.31
2023-01-08T00:09:33.743Z,100087.09
2023-01-08T00:12:00.329Z,100084.16
2023-01-08T00:14:26.845Z,100087.94
2023-01-08T00:16:53.657Z,100078.53
2023-01-08T00:19:20.217Z,100074.50
2023-01-08T00:21:46.757Z,100074.00
2023-01-08T00:24:13.339Z,100068.09
2023-01-08T00:26:39.951Z,100072.91
2023-01-08T00:29:06.991Z,100067.03
2023-01-08T00:31:33.565Z,100052.78
2023-01-08T00:34:00.393Z,100044.50
2023-01-08T00:36:27.360Z,100035.91
2023-01-08T00:38:57.452Z,100044.75
2023-01-08T00:41:24.709Z,100041.81
2023-01-08T00:43:51.396Z,100052.00
2023-01-08T00:46:17.984Z,100038.59
2023-01-08T00:48:45.024Z,100027.81
2023-01-08T00:51:12.093Z,100042.56
2023-01-08T00:53:38.832Z,100042.84
2023-01-08T00:56:07.581Z,100052.53
2023-01-08T00:58:35.100Z,100047.69
2023-01-08T01:01:02.508Z,100045.56
2023-01-08T01:03:29.152Z,100044.75
2023-01-08T01:06:02.454Z,100036.19
2023-01-08T01:08:29.165Z,100029.47
2023-01-08T01:10:59.065Z,100017.91
2023-01-08T01:13:25.890Z,100017.13
2023-01-08T01:15:59.421Z,100018.22
2023-01-08T01:18:26.845Z,100026.53
2023-01-08T01:20:53.535Z,100029.75
2023-01-08T01:23:20.388Z,100035.91
2023-01-08T01:25:47.036Z,100048.25
2023-01-08T01:28:13.951Z,100053.84
2023-01-08T01:30:40.745Z,100059.50
2023-01-08T01:33:07.331Z,100054.63
2023-01-08T01:35:34.397Z,100051.94
2023-01-08T01:38:00.944Z,100051.44
2023-01-08T01:40:27.675Z,100050.88
2023-01-08T01:42:54.446Z,100052.44
2023-01-08T01:45:24.017Z,100056.16
2023-01-08T01:47:54.211Z,100045.47
2023-01-08T01:50:29.809Z,100045.97
2023-01-08T01:53:03.072Z,100047.34
2023-01-08T01:55:30.732Z,100040.91
2023-01-08T01:58:21.428Z,100048.09
2023-01-08T02:00:48.802Z,100032.03
2023-01-08T02:03:16.599Z,100028.28
2023-01-08T02:05:46.165Z,100036.81
2023-01-08T02:08:13.891Z,100026.66
2023-01-08T02:10:40.469Z,100026.09
2023-01-08T02:13:17.656Z,100021.84
2023-01-08T02:15:44.230Z,100024.81
2023-01-08T02:18:15.043Z,100013.56
2023-01-08T02:20:46.755Z,100019.72
2023-01-08T02:23:32.229Z,100012.50
2023-01-08T02:26:04.638Z,100013.59
2023-01-08T02:28:33.782Z,100013.34
2023-01-08T02:31:00.469Z,100011.22
2023-01-08T02:33:28.135Z,100005.00
2023-01-08T02:36:11.068Z,100009.53
2023-01-08T02:38:42.553Z,100018.41
2023-01-08T02:41:11.171Z,100007.44
2023-01-08T02:43:50.275Z,99996.47
2023-01-08T02:46:23.434Z,100004.25
2023-01-08T02:48:53.021Z,99991.38
2023-01-08T02:51:24.272Z,99990.84
2023-01-08T02:53:54.860Z,99978.00
2023-01-08T02:56:24.596Z,99975.84
2023-01-08T02:58:53.212Z,99970.50
2023-01-08T03:01:22.278Z,99971.28
2023-01-08T03:03:55.041Z,99961.66
2023-01-08T03:06:21.657Z,99963.78
2023-01-08T03:08:50.536Z,99958.72
2023-01-08T03:11:21.841Z,99941.03
2023-01-08T03:14:04.633Z,99936.47
2023-01-08T03:16:35.574Z,99915.56
2023-01-08T03:19:08.026Z,99929.78
2023-01-08T03:21:35.999Z,99915.81
2023-01-08T03:24:17.079Z,99918.50
2023-01-08T03:26:47.978Z,99928.16
2023-01-08T03:29:17.843Z,99924.44
2023-01-08T03:31:48.764Z,99923.09
2023-01-08T03:34:16.373Z,99929.22
2023-01-08T03:36:46.951Z,99937.81
2023-01-08T03:42:10.567Z,99929.22
2023-01-08T03:44:37.295Z,99926.56
2023-01-08T03:47:11.413Z,99926.84
2023-01-08T03:49:41.523Z,99922.81
2023-01-08T03:52:08.571Z,99913.69
2023-01-08T03:54:39.381Z,99912.63
2023-01-08T03:57:06.143Z,99921.19
2023-01-08T03:59:34.952Z,99913.72
2023-01-08T04:02:01.523Z,99912.34
2023-01-08T04:04:29.445Z,99913.44
2023-01-08T04:07:02.760Z,99902.47
2023-01-08T04:09:31.234Z,99908.09
2023-01-08T04:11:57.876Z,99904.34
2023-01-08T04:14:27.431Z,99903.53
2023-01-08T04:16:55.318Z,99905.66
2023-01-08T04:19:21.798Z,99894.94
2023-01-08T04:21:52.206Z,99897.59
2023-01-08T04:24:21.905Z,99889.56
2023-01-08T04:26:50.781Z,99900.81
2023-01-08T04:29:20.344Z,99901.84
2023-01-08T04:31:46.847Z,99897.03
2023-01-08T04:34:13.421Z,99899.72
2023-01-08T04:36:40.629Z,99898.38
2023-01-08T04:39:10.640Z,99903.75
2023-01-08T04:41:37.217Z,99898.94
2023-01-08T04:44:03.864Z,99897.06
2023-01-08T04:46:32.840Z,99906.91
2023-01-08T04:48:59.585Z,99905.03
2023-01-08T04:51:26.504Z,99914.13
2023-01-08T04:53:53.466Z,99913.53
2023-01-08T04:56:20.422Z,99899.63
2023-01-08T04:58:47.170Z,99900.16
2023-01-08T05:01:16.195Z,99897.69
2023-01-08T05:03:42.761Z,99899.59
2023-01-08T05:06:09.466Z,99892.09
2023-01-08T05:08:36.228Z,99901.72
2023-01-08T05:11:03.206Z,99907.59
2023-01-08T05:13:33.119Z,99902.75
2023-01-08T05:16:00.737Z,99903.03
2023-01-08T05:18:28.723Z,99901.41
2023-01-08T05:20:59.226Z,99915.56
2023-01-08T05:23:26.108Z,99911.06
2023-01-08T05:25:53.979Z,99914.78
2023-01-08T05:28:23.791Z,99908.63
2023-01-08T05:30:51.033Z,99899.03
2023-01-08T05:33:17.705Z,99898.25
2023-01-08T05:35:46.710Z,99890.22
2023-01-08T05:38:13.551Z,99891.41
2023-01-08T05:40:40.117Z,99893.50
2023-01-08T05:43:06.827Z,99896.97
2023-01-08T05:45:33.726Z,99890.34
2023-01-08T05:48:01.865Z,99890.41
2023-01-08T05:50:28.480Z,99904.38
2023-01-08T05:52:58.478Z,99894.97
2023-01-08T05:55:25.308Z,99895.75
2023-01-08T05:57:52.286Z,99887.63
2023-01-08T06:00:18.799Z,99891.09
2023-01-08T06:02:48.983Z,99894.63
2023-01-08T06:05:16.004Z,99879.19
2023-01-08T06:07:42.613Z,99886.06
2023-01-08T06:10:12.487Z,99882.81
2023-01-08T06:12:39.304Z,99876.75
2023-01-08T06:15:06.234Z,99874.84
2023-01-08T06:17:33.112Z,99880.69
2023-01-08T06:19:59.622Z,99876.97
2023-01-08T06:22:27.661Z,99886.56
2023-01-08T06:24:55.342Z,99890.03
2023-01-08T06:27:24.376Z,99885.00
2023-01-08T06:29:50.938Z,99890.88
2023-01-08T06:32:17.532Z,99901.13
2023-01-08T06:34:44.240Z,99885.63
2023-01-08T06:37:11.096Z,99894.19
2023-01-08T06:39:37.776Z,99888.03
2023-01-08T06:42:04.409Z,99890.47
2023-01-08T06:44:31.172Z,99888.34
2023-01-08T06:46:57.936Z,99903.59
2023-01-08T06:49:24.621Z,99895.88
2023-01-08T06:51:51.426Z,99904.13
2023-01-08T06:54:18.047Z,99896.91
2023-01-08T06:56:53.288Z,99888.34
2023-01-08T06:59:21.196Z,99902.53
2023-01-08T07:01:49.789Z,99890.50
2023-01-08T07:04:17.075Z,99889.22
2023-01-08T07:06:43.726Z,99894.28
2023-01-08T07:09:14.708Z,99896.94
2023-01-08T07:11:41.743Z,99893.72
2023-01-08T07:14:08.782Z,99898.53
2023-01-08T07:16:35.455Z,99907.66
2023-01-08T07:19:01.967Z,99911.91
2023-01-08T07:21:28.854Z,99899.63
2023-01-08T07:23:55.841Z,99898.00
2023-01-08T07:26:22.559Z,99902.59
2023-01-08T07:28:49.373Z,99899.09
2023-01-08T07:31:17.149Z,99891.59
2023-01-08T07:33:43.847Z,99898.03
2023-01-08T07:36:10.632Z,99900.16
2023-01-08T07:38:37.378Z,99897.50
2023-01-08T07:41:06.750Z,99896.41
2023-01-08T07:43:35.667Z,99897.50
2023-01-08T07:46:03.406Z,99894.81
2023-01-08T07:48:30.012Z,99915.06
2023-01-08T07:51:00.806Z,99923.09
2023-01-08T07:53:27.755Z,99922.06
2023-01-08T07:55:59.115Z,99912.44
2023-01-08T07:58:25.701Z,99910.03
2023-01-08T08:00:52.222Z,99917.25
2023-01-08T08:03:19.603Z,99910.81
2023-01-08T08:05:49.281Z,99908.38
2023-01-08T08:08:20.484Z,99896.31
2023-01-08T08:10:47.153Z,99901.41
2023-01-08T08:13:16.102Z,99901.47
2023-01-08T08:15:42.783Z,99905.75
2023-01-08T08:18:18.895Z,99898.31
2023-01-08T08:20:52.647Z,99892.97
2023-01-08T08:23:19.517Z,99895.59
2023-01-08T08:25:48.485Z,99901.25
2023-01-08T08:28:21.765Z,99897.78
2023-01-08T08:30:52.375Z,99911.91
2023-01-08T08:33:19.096Z,99904.91
2023-01-08T08:35:52.005Z,99895.56
2023-01-08T08:38:19.237Z,99890.72
2023-01-08T08:40:46.096Z,99878.72
2023-01-08T08:43:26.209Z,99881.94
2023-01-08T08:45:57.515Z,99891.56
2023-01-08T08:48:29.662Z,99892.44
2023-01-08T08:51:00.712Z,99892.69
2023-01-08T08:53:32.918Z,99888.97
2023-01-08T08:56:14.623Z,99885.50
2023-01-08T08:58:45.256Z,99881.19
2023-01-08T09:01:14.781Z,99883.03
2023-01-08T09:03:45.648Z,99878.22
2023-01-08T09:06:16.002Z,99872.63
2023-01-08T09:08:42.852Z,99881.72
2023-01-08T09:11:13.573Z,99870.50
2023-01-08T09:13:41.087Z,99880.66
2023-01-08T09:16:07.766Z,99870.75
2023-01-08T09:18:36.777Z,99879.34
2023-01-08T09:21:07.156Z,99878.81
2023-01-08T09:23:34.450Z,99874.53
2023-01-08T09:26:02.084Z,99879.91
2023-01-08T09:28:29.032Z,99875.09
2023-01-08T09:30:58.443Z,99877.50
2023-01-08T09:33:25.201Z,99878.63
2023-01-08T09:35:51.936Z,99872.72
2023-01-08T09:38:21.296Z,99874.88
2023-01-08T09:40:56.932Z,99862.03
2023-01-08T09:43:27.698Z,99868.97
2023-01-08T09:46:06.138Z,99867.63
2023-01-08T09:48:41.331Z,99878.63
2023-01-08T09:51:19.980Z,99866.56
2023-01-08T09:53:50.341Z,99862.03
2023-01-08T09:56:20.537Z,99866.03
2023-01-08T09:58:56.868Z,99871.38
2023-01-08T10:01:25.371Z,99869.78
2023-01-08T10:04:19.853Z,99869.25
2023-01-08T10:06:59.092Z,99869.53
2023-01-08T10:09:36.588Z,99867.13
2023-01-08T10:12:07.028Z,99874.06
2023-01-08T10:14:47.949Z,99873.00
2023-01-08T10:17:21.428Z,99879.94
2023-01-08T10:22:34.516Z,99866.03
2023-01-08T10:25:12.855Z,99857.44
2023-01-08T10:27:51.735Z,99868.19
2023-01-08T10:30:37.377Z,99859.31
2023-01-08T10:33:11.610Z,99862.53
2023-01-08T10:35:40.449Z,99856.63
2023-01-08T10:38:10.033Z,99853.16
2023-01-08T10:40:49.866Z,99845.66
2023-01-08T10:43:35.078Z,99841.34
2023-01-08T10:46:06.444Z,99842.44
2023-01-08T10:49:06.767Z,99840.28
2023-01-08T10:51:36.189Z,99827.34
2023-01-08T10:54:15.440Z,99818.16
2023-01-08T10:56:45.409Z,99821.34
2023-01-08T10:59:22.135Z,99819.50
2023-01-08T11:01:55.818Z,99817.81
2023-01-08T11:04:24.033Z,99814.28
2023-01-08T11:06:50.716Z,99814.13
2023-01-08T11:09:22.067Z,99811.81
2023-01-08T11:11:49.086Z,99808.78
2023-01-08T11:14:21.434Z,99796.53
2023-01-08T11:16:48.632Z,99810.16
2023-01-08T11:19:29.677Z,99799.22
2023-01-08T11:21:56.849Z,99784.53
2023-01-08T11:24:30.279Z,99775.47
2023-01-08T11:27:00.428Z,99771.69
2023-01-08T11:29:32.079Z,99770.31
2023-01-08T11:32:25.192Z,99764.63
2023-01-08T11:35:03.963Z,99764.66
2023-01-08T11:37:36.752Z,99751.13
2023-01-08T11:40:16.335Z,99750.72
2023-01-08T11:43:01.915Z,99746.81
2023-01-08T11:45:42.576Z,99744.06
2023-01-08T11:48:30.988Z,99731.19
2023-01-08T11:50:57.483Z,99722.28
2023-01-08T11:53:24.238Z,99721.16
2023-01-08T11:56:15.910Z,99726.28
2023-01-08T11:58:51.948Z,99727.81
2023-01-08T12:01:30.761Z,99719.34
2023-01-08T12:04:12.627Z,99718.78
2023-01-08T12:06:57.339Z,99716.72
2023-01-08T12:09:53.113Z,99704.88
2023-01-08T12:12:35.317Z,99714.41
2023-01-08T12:15:18.680Z,99698.19
2023-01-08T12:17:45.779Z,99700.59
2023-01-08T12:20:18.539Z,99695.88
2023-01-08T12:22:57.136Z,99687.13
2023-01-08T12:25:44.499Z,99681.16
2023-01-08T12:28:21.272Z,99669.22
2023-01-08T12:31:19.154Z,99672.59
2023-01-08T12:33:57.536Z,99666.94
2023-01-08T12:36:30.827Z,99668.53
2023-01-08T12:39:11.883Z,99665.63
2023-01-08T12:41:43.738Z,99670.81
2023-01-08T12:44:12.180Z,99659.19
2023-01-08T12:46:42.037Z,99655.09
2023-01-08T12:49:11.356Z,99648.28
2023-01-08T12:51:47.322Z,99644.53
2023-01-08T12:54:20.108Z,99642.22
2023-01-08T12:57:02.727Z,99631.22
2023-01-08T12:59:35.466Z,99637.16
2023-01-08T13:02:02.868Z,99644.25
2023-01-08T13:04:38.978Z,99639.50
2023-01-08T13:07:06.643Z,99654.50
2023-01-08T13:09:42.413Z,99650.50
2023-01-08T13:12:30.284Z,99642.38
2023-01-08T13:15:00.837Z,99652.44
2023-01-08T13:20:52.858Z,99645.47
2023-01-08T13:23:42.797Z,99642.84
2023-01-08T13:26:09.551Z,99634.84
2023-01-08T13:31:43.231Z,99619.34
2023-01-08T13:34:31.806Z,99613.94
2023-01-08T13:37:26.973Z,99611.56
2023-01-08T13:39:56.925Z,99606.69
2023-01-08T13:42:40.347Z,99602.53
2023-01-08T13:45:10.535Z,99603.78
2023-01-08T13:47:43.022Z,99598.66
2023-01-08T13:50:34.053Z,99602.88
2023-01-08T13:53:08.862Z,99611.00
2023-01-08T13:55:43.201Z,99609.50
2023-01-08T13:58:24.591Z,99604.22
2023-01-08T14:00:59.422Z,99601.25
2023-01-08T14:03:35.676Z,99594.75
2023-01-08T14:06:18.276Z,99591.44
2023-01-08T14:09:00.217Z,99590.53
2023-01-08T14:11:33.866Z,99591.66
2023-01-08T14:14:19.936Z,99573.66
2023-01-08T14:16:52.891Z,99573.59
2023-01-08T14:19:29.132Z,99564.66
2023-01-08T14:22:01.887Z,99567.34
2023-01-08T14:24:28.560Z,99562.50
2023-01-08T14:27:00.921Z,99574.53
2023-01-08T14:29:32.292Z,99573.22
2023-01-08T14:32:04.734Z,99564.38
2023-01-08T14:34:34.708Z,99566.56
2023-01-08T14:37:01.711Z,99569.44
2023-01-08T14:39:48.636Z,99566.38
2023-01-08T14:42:41.866Z,99554.88
2023-01-08T14:45:30.221Z,99563.13
2023-01-08T14:48:28.648Z,99569.94
2023-01-08T14:51:06.735Z,99558.97
2023-01-08T14:56:32.554Z,99554.19
2023-01-08T14:58:59.963Z,99555.88
2023-01-08T15:01:30.531Z,99545.72
2023-01-08T15:04:09.717Z,99544.94
2023-01-08T15:06:38.704Z,99543.19
2023-01-08T15:09:21.085Z,99537.31
2023-01-08T15:11:55.411Z,99533.69
2023-01-08T15:14:28.074Z,99532.25
2023-01-08T15:17:07.766Z,99530.38
2023-01-08T15:19:41.256Z,99532.28
2023-01-08T15:22:15.842Z,99532.53
2023-01-08T15:24:46.916Z,99526.97
2023-01-08T15:30:31.278Z,99520.56
2023-01-08T15:33:12.448Z,99527.28
2023-01-08T15:35:39.024Z,99525.66
2023-01-08T15:38:18.249Z,99515.25
2023-01-08T15:40:47.045Z,99515.81
2023-01-08T15:43:16.715Z,99510.50
2023-01-08T15:45:44.902Z,99499.75
2023-01-08T15:48:14.486Z,99501.59
2023-01-08T15:50:47.976Z,99498.16
2023-01-08T15:53:19.346Z,99503.31
2023-01-08T15:55:46.978Z,99495.56
2023-01-08T15:58:14.145Z,99488.03
2023-01-08T16:00:41.762Z,99488.50
2023-01-08T16:03:12.088Z,99483.66
2023-01-08T16:05:41.695Z,99481.97
2023-01-08T16:08:08.646Z,99482.53
2023-01-08T16:10:35.375Z,99472.69
2023-01-08T16:13:02.069Z,99478.81
2023-01-08T16:15:31.101Z,99467.53
2023-01-08T16:17:58.926Z,99470.41
2023-01-08T16:20:25.745Z,99478.16
2023-01-08T16:22:52.378Z,99472.28
2023-01-08T16:25:19.054Z,99465.06
2023-01-08T16:27:45.620Z,99457.84
2023-01-08T16:30:15.368Z,99464.31
2023-01-08T16:32:42.087Z,99468.88
2023-01-08T16:35:09.008Z,99466.22
2023-01-08T16:37:35.656Z,99466.69
2023-01-08T16:40:02.250Z,99465.25
2023-01-08T16:42:28.932Z,99460.66
2023-01-08T16:44:55.542Z,99464.19
2023-01-08T16:47:22.106Z,99458.28
2023-01-08T16:49:50.345Z,99466.59
2023-01-08T16:52:17.692Z,99457.78
2023-01-08T16:54:44.845Z,99453.69
2023-01-08T16:57:11.487Z,99453.34
2023-01-08T16:59:38.498Z,99458.63
2023-01-08T17:02:09.843Z,99450.59
2023-01-08T17:04:38.000Z,99450.16
2023-01-08T17:07:05.056Z,99449.56
2023-01-08T17:09:31.799Z,99449.09
2023-01-08T17:11:58.408Z,99436.75
2023-01-08T17:14:25.049Z,99426.16
2023-01-08T17:16:51.709Z,99410.38
2023-01-08T17:19:18.333Z,99408.78
2023-01-08T17:21:46.073Z,99396.78
2023-01-08T17:24:12.998Z,99401.59
2023-01-08T17:26:39.562Z,99402.94
2023-01-08T17:29:06.059Z,99398.44
2023-01-08T17:31:39.824Z,99398.25
2023-01-08T17:34:08.517Z,99385.78
2023-01-08T17:36:36.129Z,99380.50
2023-01-08T17:39:03.730Z,99377.88
2023-01-08T17:41:49.034Z,99365.94
2023-01-08T17:44:15.966Z,99358.53
2023-01-08T17:46:44.679Z,99358.28
2023-01-08T17:49:13.273Z,99351.94
2023-01-08T17:51:41.007Z,99349.25
2023-01-08T17:54:10.191Z,99353.78
2023-01-08T17:56:36.920Z,99349.22
2023-01-08T17:59:11.161Z,99352.66
2023-01-08T18:01:37.761Z,99348.84
2023-01-08T18:04:04.592Z,99343.75
2023-01-08T18:06:31.451Z,99338.38
2023-01-08T18:08:58.000Z,99337.28
2023-01-08T18:11:25.453Z,99347.97
2023-01-08T18:13:56.044Z,99348.22
2023-01-08T18:16:22.694Z,99352.22
2023-01-08T18:18:49.410Z,99348.44
2023-01-08T18:21:16.019Z,99340.72
2023-01-08T18:23:44.116Z,99347.41
2023-01-08T18:26:12.425Z,99346.88
2023-01-08T18:28:39.251Z,99336.22
2023-01-08T18:31:06.722Z,99336.22
2023-01-08T18:33:34.013Z,99330.88
2023-01-08T18:36:03.168Z,99323.38
2023-01-08T18:38:29.939Z,99328.72
2023-01-08T18:40:57.954Z,99328.22
2023-01-08T18:43:25.718Z,99319.94
2023-01-08T18:45:52.834Z,99331.41
2023-01-08T18:48:19.517Z,99319.13
2023-01-08T18:50:46.669Z,99305.25
2023-01-08T18:53:18.220Z,99300.47
2023-01-08T18:55:47.869Z,99304.78
2023-01-08T18:58:14.404Z,99299.31
2023-01-08T19:00:41.304Z,99297.75
2023-01-08T19:03:09.061Z,99281.69
2023-01-08T19:05:42.721Z,99280.06
2023-01-08T19:08:17.026Z,99278.50
2023-01-08T19:10:46.715Z,99282.22
2023-01-08T19:13:13.700Z,99279.06
2023-01-08T19:15:40.363Z,99275.63
2023-01-08T19:18:09.277Z,99274.19
2023-01-08T19:20:35.914Z,99266.66
2023-01-08T19:23:03.078Z,99260.75
2023-01-08T19:25:32.451Z,99254.78
2023-01-08T19:27:59.143Z,99256.69
2023-01-08T19:30:25.717Z,99252.09
2023-01-08T19:32:52.364Z,99246.94
2023-01-08T19:35:18.903Z,99232.88
2023-01-08T19:37:45.481Z,99228.72
2023-01-08T19:40:12.741Z,99225.56
2023-01-08T19:42:58.010Z,99218.03
2023-01-08T19:45:24.725Z,99210.31
2023-01-08T19:47:53.485Z,99208.34
2023-01-08T19:50:20.664Z,99212.59
2023-01-08T19:52:47.204Z,99201.56
2023-01-08T19:55:13.706Z,99200.94
2023-01-08T19:57:40.478Z,99205.13
2023-01-08T20:00:07.401Z,99197.84
2023-01-08T20:02:38.422Z,99191.56
2023-01-08T20:05:05.391Z,99191.28
2023-01-08T20:07:31.967Z,99191.81
2023-01-08T20:09:58.482Z,99190.50
2023-01-08T20:12:25.007Z,99188.63
2023-01-08T20:14:51.470Z,99177.16
2023-01-08T20:17:25.780Z,99181.47
2023-01-08T20:19:55.905Z,99164.91
2023-01-08T20:22:22.547Z,99168.09
2023-01-08T20:24:53.174Z,99166.22
2023-01-08T20:27:19.730Z,99157.38
2023-01-08T20:29:52.461Z,99160.31
2023-01-08T20:32:21.019Z,99158.19
2023-01-08T20:34:48.704Z,99149.72
2023-01-08T20:37:15.489Z,99146.78
2023-01-08T20:39:42.274Z,99140.75
2023-01-08T20:42:10.093Z,99145.59
2023-01-08T20:44:36.745Z,99145.56
2023-01-08T20:47:03.786Z,99144.75
2023-01-08T20:49:30.521Z,99138.84
2023-01-08T20:51:59.894Z,99130.06
2023-01-08T20:54:27.845Z,99131.19
2023-01-08T20:56:55.829Z,99120.47
2023-01-08T20:59:24.117Z,99116.84
2023-01-08T21:01:51.003Z,99120.66
2023-01-08T21:04:19.413Z,99108.34
2023-01-08T21:06:46.384Z,99099.25
2023-01-08T21:09:16.255Z,99099.84
2023-01-08T21:11:43.013Z,99095.56
2023-01-08T21:14:11.134Z,99096.56
2023-01-08T21:16:39.708Z,99101.88
2023-01-08T21:19:06.788Z,99104.22
2023-01-08T21:21:40.150Z,99105.34
2023-01-08T21:24:09.200Z,99096.06
2023-01-08T21:26:39.065Z,99089.69
2023-01-08T21:29:09.180Z,99088.94
2023-01-08T21:31:36.181Z,99086.38
2023-01-08T21:34:06.575Z,99078.69
2023-01-08T21:36:33.482Z,99071.69
2023-01-08T21:39:01.340Z,99057.81
2023-01-08T21:41:47.741Z,99053.47
2023-01-08T21:44:44.746Z,99050.66
2023-01-08T21:47:17.970Z,99036.00
2023-01-08T21:49:45.819Z,99038.94
2023-01-08T21:52:31.300Z,99037.19
2023-01-08T21:54:58.402Z,99035.09
2023-01-08T21:57:27.819Z,99041.22
2023-01-08T21:59:55.121Z,99033.00
2023-01-08T22:02:23.254Z,99026.91
2023-01-08T22:04:50.184Z,99023.56
2023-01-08T22:07:19.634Z,99022.25
2023-01-08T22:09:46.328Z,99012.63
2023-01-08T22:12:14.164Z,99002.50
2023-01-08T22:14:40.678Z,98998.50
2023-01-08T22:17:08.552Z,99002.00
2023-01-08T22:19:37.341Z,98990.56
2023-01-08T22:22:04.577Z,98989.25
2023-01-08T22:24:35.040Z,98987.88
2023-01-08T22:27:01.634Z,98990.44
2023-01-08T22:29:28.234Z,98987.41
2023-01-08T22:31:55.062Z,98983.09
2023-01-08T22:34:21.735Z,98979.78
2023-01-08T22:36:53.159Z,98974.28
2023-01-08T22:39:29.112Z,98959.25
2023-01-08T22:42:01.036Z,98960.31
2023-01-08T22:47:20.565Z,98958.19
2023-01-08T22:49:50.858Z,98954.44
2023-01-08T22:52:21.967Z,98962.31
2023-01-08T22:54:55.711Z,98959.94
2023-01-08T22:57:23.355Z,98963.28
2023-01-08T22:59:54.097Z,98961.84
2023-01-08T23:02:25.870Z,98967.03
2023-01-08T23:04:55.160Z,98970.81
2023-01-08T23:07:26.236Z,98974.78
2023-01-08T23:10:05.129Z,98977.63
2023-01-08T23:12:44.963Z,98963.41
2023-01-08T23:15:15.654Z,98972.94
2023-01-08T23:17:52.158Z,98972.94
2023-01-08T23:20:27.206Z,98978.66
2023-01-08T23:23:05.705Z,98973.38
2023-01-08T23:25:41.853Z,98972.06
2023-01-08T23:28:12.444Z,98971.06
2023-01-08T23:30:47.186Z,98967.88
2023-01-08T23:33:14.891Z,98961.50
2023-01-08T23:35:50.530Z,98961.84
2023-01-08T23:38:31.761Z,98963.78
2023-01-08T23:41:17.768Z,98963.25
2023-01-08T23:44:11.314Z,98964.22
2023-01-08T23:46:45.792Z,98951.47
2023-01-08T23:49:20.180Z,98957.00
2023-01-08T23:51:51.073Z,98954.75
2023-01-08T23:54:49.265Z,98958.03
2023-01-08T23:57:31.320Z,98949.41
2023-01-08T23:59:59.625Z,98938.41
